Time;durP1;ratioP1;P1;durP2;ratioP2;P2;SDS_P1;SDS_P2;PMS_P1;PMS_P2;Temp;Humidity;BMP_temperature;BMP_pressure;BME280_temperature;BME280_humidity;BME280_pressure;Samples;Min_cycle;Max_cycle;Signal;HPM_P1;HPM_P2
2021/03/30 00:00:08;;;;;;;;;;;;;;;17.19;63.22;102390.09;5052417;28;1802;-62
2021/03/30 00:02:34;;;;;;;;;;;;;;;17.18;63.12;102388.38;5050844;28;1543;-62
2021/03/30 00:04:59;;;;;;;;;;;;;;;17.17;62.85;102384.84;5051154;28;1615;-62
2021/03/30 00:07:24;;;;;;;;;;;;;;;17.17;62.25;102389.31;5052240;28;1480;-57
2021/03/30 00:09:50;;;;;;;;;;;;;;;17.19;63.08;102379.41;5050995;28;1623;-57
2021/03/30 00:12:15;;;;;;;;;;;;;;;17.18;63.04;102383.03;5054046;28;1454;-62
2021/03/30 00:14:41;;;;;;;;;;;;;;;17.19;62.70;102390.09;5051374;28;1914;-57
2021/03/30 00:17:06;;;;;;;;;;;;;;;17.18;62.03;102388.38;5050859;28;1422;-63
2021/03/30 00:19:31;;;;;;;;;;;;;;;17.17;63.20;102382.19;5049165;28;1346;-56
2021/03/30 00:21:57;;;;;;;;;;;;;;;17.16;63.04;102380.44;5047073;28;1643;-64
2021/03/30 00:24:22;;;;;;;;;;;;;;;17.15;62.69;102381.41;5050341;28;1504;-58
2021/03/30 00:26:47;;;;;;;;;;;;;;;17.15;62.38;102383.19;5054344;28;1318;-62
2021/03/30 00:29:13;;;;;;;;;;;;;;;17.15;62.18;102385.84;5051348;28;1615;-63
2021/03/30 00:31:38;;;;;;;;;;;;;;;17.16;63.14;102380.44;5050764;28;1523;-57
2021/03/30 00:34:04;;;;;;;;;;;;;;;17.13;63.26;102377.94;5048567;28;1879;-63
2021/03/30 00:36:29;;;;;;;;;;;;;;;17.14;63.09;102373.47;5052669;28;1350;-57
2021/03/30 00:38:54;;;;;;;;;;;;;;;17.12;62.19;102381.56;5051155;28;1397;-63
2021/03/30 00:41:20;;;;;;;;;;;;;;;17.15;63.15;102370.72;5053231;28;1396;-63
2021/03/30 00:43:45;;;;;;;;;;;;;;;17.13;62.56;102369.94;5053258;28;1548;-57
2021/03/30 00:46:12;;;;;;;;;;;;;;;17.12;62.18;102375.34;5049513;28;1445;-63
2021/03/30 00:48:38;;;;;;;;;;;;;;;17.12;63.17;102376.22;5052388;28;1457;-63
2021/03/30 00:51:03;;;;;;;;;;;;;;;17.11;61.97;102385.19;5052712;28;1639;-62
2021/03/30 00:53:28;;;;;;;;;;;;;;;17.12;63.37;102375.34;5052436;28;1311;-63
2021/03/30 00:55:54;;;;;;;;;;;;;;;17.10;62.57;102378.09;5053010;28;1885;-57
2021/03/30 00:58:19;;;;;;;;;;;;;;;17.08;63.34;102372.84;5052212;28;1572;-57
2021/03/30 01:00:44;;;;;;;;;;;;;;;17.10;62.59;102378.09;5050910;28;1572;-62
2021/03/30 01:03:10;;;;;;;;;;;;;;;17.09;62.38;102376.38;5051636;28;1369;-62
2021/03/30 01:05:35;;;;;;;;;;;;;;;17.12;62.77;102381.56;5051238;28;1322;-62
2021/03/30 01:08:24;;;;;;;;;;;;;;;17.07;63.20;102383.63;5051406;28;1524;-62
2021/03/30 01:10:54;;;;;;;;;;;;;;;17.09;62.03;102379.06;5045005;28;1482;-57
2021/03/30 01:13:38;;;;;;;;;;;;;;;17.08;62.29;102370.16;5051904;28;1571;-62
2021/03/30 01:16:14;;;;;;;;;;;;;;;17.10;62.97;102378.97;5048484;28;1350;-63
2021/03/30 01:18:56;;;;;;;;;;;;;;;17.10;62.21;102381.63;5051705;28;1611;-56
2021/03/30 01:21:38;;;;;;;;;;;;;;;17.08;63.29;102359.47;5051438;28;1504;-62
2021/03/30 01:24:09;;;;;;;;;;;;;;;17.10;62.09;102378.97;5048079;28;1425;-63
2021/03/30 01:26:46;;;;;;;;;;;;;;;17.07;62.14;102367.59;5053560;28;1643;-57
2021/03/30 01:29:18;;;;;;;;;;;;;;;17.05;62.58;102370.34;5052372;28;1532;-61
2021/03/30 01:31:45;;;;;;;;;;;;;;;17.07;63.27;102373.78;5049897;28;1412;-62
2021/03/30 01:34:12;;;;;;;;;;;;;;;17.08;62.68;102372.84;5049487;28;1882;-57
2021/03/30 01:36:39;;;;;;;;;;;;;;;17.06;62.28;102380.06;5051159;28;1576;-57
2021/03/30 01:39:06;;;;;;;;;;;;;;;17.06;62.42;102377.41;5049257;28;1310;-62
2021/03/30 01:41:33;;;;;;;;;;;;;;;17.05;62.99;102362.31;5053292;28;1580;-62
2021/03/30 01:43:59;;;;;;;;;;;;;;;17.07;63.09;102368.44;5050696;28;1568;-62
2021/03/30 01:46:27;;;;;;;;;;;;;;;17.08;62.09;102374.66;5068399;28;1394;-63
2021/03/30 01:48:53;;;;;;;;;;;;;;;17.03;63.10;102366.91;5051454;28;1540;-57
2021/03/30 01:51:18;;;;;;;;;;;;;;;17.04;63.32;102362.41;5054821;28;1560;-63
2021/03/30 01:53:44;;;;;;;;;;;;;;;17.05;63.18;102370.34;5055871;28;1882;-57
2021/03/30 01:56:10;;;;;;;;;;;;;;;17.02;63.26;102372.31;5054241;28;1779;-57
2021/03/30 01:58:37;;;;;;;;;;;;;;;17.03;62.66;102364.22;5055662;28;1663;-62
2021/03/30 02:01:09;;;;;;;;;;;;;;;17.04;62.38;102373.09;5068664;23;1980;-45
2021/03/30 02:03:35;;;;;;;;;;;;;;;17.03;62.73;102364.22;5061894;28;1562;-45
2021/03/30 02:06:05;;;;;;;;;;;;;;;17.01;62.27;102366.13;5071763;28;1704;-46
2021/03/30 02:08:32;;;;;;;;;;;;;;;17.03;62.64;102356.19;5064228;28;1555;-46
2021/03/30 02:10:57;;;;;;;;;;;;;;;17.02;62.54;102354.47;5068843;23;3531;-57
2021/03/30 02:15:52;;;;;;;;;;;;;;;17.01;62.50;102362.56;5033282;28;1969;-62
2021/03/30 02:18:19;;;;;;;;;;;;;;;16.99;62.26;102354.66;5030604;28;1434;-62
2021/03/30 02:20:48;;;;;;;;;;;;;;;17.02;62.73;102370.50;5031783;28;1562;-62
2021/03/30 02:23:17;;;;;;;;;;;;;;;16.97;62.51;102361.88;5031633;28;1717;-57
2021/03/30 02:25:45;;;;;;;;;;;;;;;17.00;63.70;102351.00;5032976;28;1625;-57
2021/03/30 02:28:14;;;;;;;;;;;;;;;17.01;62.21;102357.22;5033378;28;1438;-63
2021/03/30 02:30:40;;;;;;;;;;;;;;;17.01;62.45;102367.91;5024382;28;1387;-62
2021/03/30 02:33:07;;;;;;;;;;;;;;;17.00;62.21;102356.34;5032792;28;1207;-55
2021/03/30 02:35:33;;;;;;;;;;;;;;;17.06;63.38;102353.34;5017978;28;1890;-57
2021/03/30 02:37:59;;;;;;;;;;;;;;;17.05;62.58;102358.75;5033099;28;1701;-58
2021/03/30 02:40:25;;;;;;;;;;;;;;;17.02;63.77;102349.13;5031026;28;1419;-57
2021/03/30 02:42:51;;;;;;;;;;;;;;;16.98;62.60;102358.25;5034009;28;1427;-57
2021/03/30 02:45:19;;;;;;;;;;;;;;;17.01;63.98;102355.44;5033869;28;1339;-57
2021/03/30 02:47:45;;;;;;;;;;;;;;;16.99;62.44;102349.31;5017743;28;1536;-57
2021/03/30 02:50:11;;;;;;;;;;;;;;;16.97;62.53;102355.66;5029182;28;1462;-62
2021/03/30 02:52:37;;;;;;;;;;;;;;;17.00;62.85;102353.69;5033313;28;1529;-62
2021/03/30 02:55:04;;;;;;;;;;;;;;;16.96;63.29;102354.78;5027186;28;1953;-62
2021/03/30 02:57:30;;;;;;;;;;;;;;;17.00;62.73;102355.50;5032367;28;1450;-62
2021/03/30 02:59:55;;;;;;;;;;;;;;;16.94;63.17;102346.00;5030835;28;1422;-62
2021/03/30 03:02:22;;;;;;;;;;;;;;;16.98;62.90;102352.91;5032550;28;1605;-62
2021/03/30 03:04:49;;;;;;;;;;;;;;;16.97;63.39;102351.19;5031130;28;1339;-57
2021/03/30 03:07:15;;;;;;;;;;;;;;;16.96;62.92;102346.78;5031670;28;1485;-62
2021/03/30 03:09:40;;;;;;;;;;;;;;;16.97;62.81;102351.19;5032491;28;1576;-62
2021/03/30 03:12:07;;;;;;;;;;;;;;;16.96;62.86;102354.78;5033903;28;1295;-62
2021/03/30 03:14:34;;;;;;;;;;;;;;;16.96;64.00;102360.13;5033136;28;1914;-62
2021/03/30 03:16:59;;;;;;;;;;;;;;;16.91;63.51;102335.50;5030314;28;1359;-63
2021/03/30 03:19:26;;;;;;;;;;;;;;;16.95;63.58;102349.53;5030170;28;1457;-63
2021/03/30 03:21:53;;;;;;;;;;;;;;;16.92;63.62;102347.91;5033068;28;1442;-56
2021/03/30 03:24:19;;;;;;;;;;;;;;;16.91;63.99;102343.50;5030035;28;1485;-62
2021/03/30 03:26:44;;;;;;;;;;;;;;;16.91;62.97;102340.84;5033822;28;1291;-62
2021/03/30 03:29:19;;;;;;;;;;;;;;;16.95;62.55;102345.06;5031089;28;1492;-62
2021/03/30 03:31:46;;;;;;;;;;;;;;;16.93;63.98;102344.28;5031842;28;1445;-57
2021/03/30 03:34:11;;;;;;;;;;;;;;;16.90;62.57;102349.78;5032308;28;1945;-63
2021/03/30 03:36:38;;;;;;;;;;;;;;;16.95;63.50;102358.44;5032604;28;1450;-62
2021/03/30 03:39:05;;;;;;;;;;;;;;;16.93;62.47;102352.31;5029042;28;1319;-62
2021/03/30 03:41:30;;;;;;;;;;;;;;;16.92;62.75;102358.59;5033162;28;1299;-57
2021/03/30 03:43:56;;;;;;;;;;;;;;;16.91;62.71;102348.84;5031144;28;1493;-62
2021/03/30 03:46:21;;;;;;;;;;;;;;;16.91;62.46;102343.50;5029962;28;1473;-62
2021/03/30 03:48:46;;;;;;;;;;;;;;;16.92;62.88;102355.91;5028353;28;1311;-57
2021/03/30 03:51:12;;;;;;;;;;;;;;;16.92;63.42;102358.59;5023751;28;1405;-57
2021/03/30 03:53:38;;;;;;;;;;;;;;;16.90;63.89;102350.66;5030722;28;1303;-57
2021/03/30 03:56:04;;;;;;;;;;;;;;;16.91;62.34;102356.88;5022748;28;1948;-62
2021/03/30 03:58:44;;;;;;;;;;;;;;;16.89;62.79;102364.97;5031652;28;1425;-62
2021/03/30 04:01:13;;;;;;;;;;;;;;;16.93;62.57;102365.66;5030757;28;1274;-62
2021/03/30 04:03:48;;;;;;;;;;;;;;;16.91;63.03;102362.22;5024390;28;1246;-62
2021/03/30 04:06:16;;;;;;;;;;;;;;;16.94;63.25;102372.72;5022295;28;1381;-63
2021/03/30 04:08:44;;;;;;;;;;;;;;;16.93;62.93;102367.44;5025045;28;1430;-61
2021/03/30 04:11:10;;;;;;;;;;;;;;;16.90;63.68;102363.16;5024628;28;1496;-57
2021/03/30 04:13:36;;;;;;;;;;;;;;;16.94;63.67;102369.19;5029138;28;1442;-57
2021/03/30 04:16:03;;;;;;;;;;;;;;;16.91;62.70;102370.22;5027338;28;1910;-57
2021/03/30 04:18:30;;;;;;;;;;;;;;;16.93;62.85;102370.13;5029760;28;1453;-62
2021/03/30 04:20:55;;;;;;;;;;;;;;;16.90;62.64;102372.03;5029976;28;1446;-59
2021/03/30 04:23:24;;;;;;;;;;;;;;;16.94;62.66;102382.56;5031945;28;1307;-62
2021/03/30 04:25:50;;;;;;;;;;;;;;;16.94;62.84;102372.72;5028086;28;1533;-57
2021/03/30 04:28:15;;;;;;;;;;;;;;;16.94;63.85;102378.06;5030751;28;1461;-62
2021/03/30 04:30:41;;;;;;;;;;;;;;;16.99;63.51;102397.41;5025778;28;1318;-63
2021/03/30 04:33:06;;;;;;;;;;;;;;;16.98;63.26;102390.31;5029335;28;1461;-62
2021/03/30 04:35:32;;;;;;;;;;;;;;;17.00;62.78;102392.91;5029292;28;1886;-62
2021/03/30 04:37:57;;;;;;;;;;;;;;;17.03;63.53;102396.28;5029778;28;1540;-62
2021/03/30 04:40:23;;;;;;;;;;;;;;;17.09;63.15;102403.97;5026584;28;1439;-63
2021/03/30 04:42:48;;;;;;;;;;;;;;;17.27;62.95;102406.59;5031540;28;1287;-57
2021/03/30 04:45:14;;;;;;;;;;;;;;;17.73;60.72;102392.47;5030073;28;1299;-57
2021/03/30 04:47:39;;;;;;;;;;;;;;;18.21;59.50;102414.69;5027412;28;1720;-63
2021/03/30 04:50:05;;;;;;;;;;;;;;;18.02;59.43;102409.53;5026851;28;1422;-57
2021/03/30 04:52:31;;;;;;;;;;;;;;;17.53;60.78;102406.94;5029299;28;1447;-63
2021/03/30 04:54:56;;;;;;;;;;;;;;;17.28;62.25;102413.66;5030051;28;1956;-62
2021/03/30 04:57:21;;;;;;;;;;;;;;;17.17;62.93;102416.03;5031978;28;1506;-62
2021/03/30 04:59:47;;;;;;;;;;;;;;;17.11;62.97;102435.97;5028578;28;1480;-57
2021/03/30 05:02:12;;;;;;;;;;;;;;;17.07;62.30;102432.59;5024717;28;1451;-62
2021/03/30 05:04:37;;;;;;;;;;;;;;;17.08;63.50;102439.66;5027717;28;1364;-62
2021/03/30 05:07:03;;;;;;;;;;;;;;;17.10;62.10;102442.25;5026816;28;1477;-62
2021/03/30 05:09:28;;;;;;;;;;;;;;;17.11;62.64;102441.31;5029867;28;1520;-57
2021/03/30 05:11:53;;;;;;;;;;;;;;;17.20;62.51;102435.47;5029104;28;1337;-57
2021/03/30 05:14:19;;;;;;;;;;;;;;;17.46;62.42;102438.53;5027993;28;1985;-62
2021/03/30 05:16:44;;;;;;;;;;;;;;;17.46;61.32;102454.56;5026363;28;1351;-62
2021/03/30 05:19:09;;;;;;;;;;;;;;;17.42;62.26;102431.63;5028994;28;1398;-57
2021/03/30 05:21:35;;;;;;;;;;;;;;;17.47;61.57;102440.25;5036314;28;1470;-62
2021/03/30 05:24:00;;;;;;;;;;;;;;;17.53;61.56;102439.03;5031268;28;1300;-57
2021/03/30 05:26:26;;;;;;;;;;;;;;;17.69;60.76;102437.25;5036382;28;1407;-57
2021/03/30 05:28:51;;;;;;;;;;;;;;;18.23;59.49;102440.41;5036712;28;1438;-62
2021/03/30 05:31:17;;;;;;;;;;;;;;;18.77;58.03;102431.84;5033191;28;1475;-57
2021/03/30 05:33:42;;;;;;;;;;;;;;;19.02;57.16;102425.91;5034163;28;1330;-62
2021/03/30 05:36:09;;;;;;;;;;;;;;;19.15;57.05;102433.16;5036765;28;1882;-57
2021/03/30 05:38:34;;;;;;;;;;;;;;;19.07;57.33;102426.44;5034178;28;1350;-62
2021/03/30 05:41:02;;;;;;;;;;;;;;;18.74;58.32;102429.38;5034547;28;1338;-57
2021/03/30 05:43:28;;;;;;;;;;;;;;;18.43;59.09;102435.72;5035230;28;1457;-57
2021/03/30 05:45:53;;;;;;;;;;;;;;;18.32;59.70;102439.00;5031399;28;1379;-62
2021/03/30 05:48:19;;;;;;;;;;;;;;;18.18;59.44;102415.72;5033876;28;1402;-62
2021/03/30 05:50:44;;;;;;;;;;;;;;;18.46;59.68;102430.16;5032765;28;1296;-62
2021/03/30 05:53:11;;;;;;;;;;;;;;;18.44;59.69;102442.78;5033672;28;1696;-62
2021/03/30 05:55:37;;;;;;;;;;;;;;;18.34;60.06;102436.25;5035930;28;1951;-62
2021/03/30 05:58:03;;;;;;;;;;;;;;;18.31;60.12;102439.13;5035176;28;1425;-63
2021/03/30 06:00:47;;;;;;;;;;;;;;;18.27;60.27;102441.97;5034813;28;1343;-63
2021/03/30 06:03:13;;;;;;;;;;;;;;;18.23;60.26;102437.75;5033663;28;1388;-62
2021/03/30 06:05:39;;;;;;;;;;;;;;;18.16;60.35;102441.72;5036772;28;1369;-57
2021/03/30 06:08:05;;;;;;;;;;;;;;;18.14;61.08;102454.34;5026524;28;1672;-63
2021/03/30 06:10:32;;;;;;;;;;;;;;;18.12;60.77;102447.34;5036023;28;1626;-57
2021/03/30 06:12:58;;;;;;;;;;;;;;;18.06;61.53;102449.44;5019573;28;1382;-62
2021/03/30 06:15:33;;;;;;;;;;;;;;;18.05;61.43;102446.84;5029486;28;1974;-57
2021/03/30 06:17:59;;;;;;;;;;;;;;;18.08;60.86;102446.66;5030788;28;1026;-62
2021/03/30 06:20:25;;;;;;;;;;;;;;;18.13;60.64;102455.31;5036222;28;1671;-62
2021/03/30 06:22:52;;;;;;;;;;;;;;;18.18;60.70;102447.84;5036230;28;1540;-57
2021/03/30 06:25:36;;;;;;;;;;;;;;;18.20;61.79;102462.00;5032662;28;1283;-57
2021/03/30 06:28:11;;;;;;;;;;;;;;;18.20;61.04;102459.31;5018918;28;1548;-62
2021/03/30 06:30:55;;;;;;;;;;;;;;;18.21;61.12;102469.09;5025998;28;1612;-57
2021/03/30 06:33:21;;;;;;;;;;;;;;;18.21;61.47;102462.91;5032869;28;1422;-62
2021/03/30 06:35:46;;;;;;;;;;;;;;;18.22;61.42;102462.81;5025585;28;1953;-56
2021/03/30 06:38:12;;;;;;;;;;;;;;;18.22;61.00;102457.47;5022251;28;1166;-62
2021/03/30 06:40:39;;;;;;;;;;;;;;;18.25;61.92;102462.63;5025972;28;1688;-57
2021/03/30 06:46:06;;;;;;;;;;;;;;;18.26;61.48;102452.75;5030703;28;1587;-57
2021/03/30 06:48:31;;;;;;;;;;;;;;;18.25;61.36;102459.94;5028455;28;1598;-62
2021/03/30 06:51:01;;;;;;;;;;;;;;;18.26;61.25;102460.78;5030090;28;1386;-62
2021/03/30 06:53:32;;;;;;;;;;;;;;;18.28;62.03;102470.50;5026303;28;1021;-62
2021/03/30 06:55:57;;;;;;;;;;;;;;;18.28;61.38;102459.78;5024267;28;1890;-62
2021/03/30 06:58:23;;;;;;;;;;;;;;;18.32;61.88;102456.91;5031262;28;1537;-57
2021/03/30 07:00:49;;;;;;;;;;;;;;;18.32;61.61;102459.56;5025341;28;1354;-62
2021/03/30 07:03:19;;;;;;;;;;;;;;;18.32;62.32;102455.06;5025176;28;1541;-57
2021/03/30 07:05:45;;;;;;;;;;;;;;;18.29;61.59;102457.94;5023890;28;765;-57
2021/03/30 07:08:17;;;;;;;;;;;;;;;18.35;61.85;102473.66;5026236;28;1718;-63
2021/03/30 07:10:47;;;;;;;;;;;;;;;18.33;61.66;102472.03;5023323;28;1685;-57
2021/03/30 07:13:14;;;;;;;;;;;;;;;18.32;61.88;102459.56;5030664;28;1525;-58
2021/03/30 07:15:39;;;;;;;;;;;;;;;18.32;61.49;102475.66;5024347;28;1981;-57
2021/03/30 07:18:07;;;;;;;;;;;;;;;18.34;62.14;102465.72;5023622;28;1534;-63
2021/03/30 07:20:42;;;;;;;;;;;;;;;18.32;62.04;102460.44;5026034;28;866;-57
2021/03/30 07:23:10;;;;;;;;;;;;;;;18.34;61.91;102465.72;5042490;28;1540;-63
2021/03/30 07:25:39;;;;;;;;;;;;;;;18.32;61.75;102460.44;5032469;28;1366;-63
2021/03/30 07:28:07;;;;;;;;;;;;;;;18.31;60.65;102460.53;5031907;28;1473;-63
2021/03/30 07:30:33;;;;;;;;;;;;;;;18.27;61.14;102474.09;5027218;28;1568;-62
2021/03/30 07:33:17;;;;;;;;;;;;;;;18.36;61.00;102477.19;5031899;28;1160;-65
2021/03/30 07:35:42;;;;;;;;;;;;;;;18.36;61.63;102459.28;5031002;28;1894;-57
2021/03/30 07:38:10;;;;;;;;;;;;;;;18.42;61.66;102469.69;5030058;28;1493;-56
2021/03/30 07:40:37;;;;;;;;;;;;;;;18.41;58.47;102470.63;5028777;28;1268;-56
2021/03/30 07:43:04;;;;;;;;;;;;;;;18.06;55.77;102483.38;5031788;28;1421;-57
2021/03/30 07:45:31;;;;;;;;;;;;;;;18.09;56.92;102462.63;5027286;28;1438;-63
2021/03/30 07:47:57;;;;;;;;;;;;;;;18.13;55.09;102475.88;5022499;28;854;-57
2021/03/30 07:50:24;;;;;;;;;;;;;;;18.11;56.78;102469.75;5026238;28;1317;-56
2021/03/30 07:52:52;;;;;;;;;;;;;;;18.11;55.12;102467.91;5019424;28;1755;-63
2021/03/30 07:55:22;;;;;;;;;;;;;;;18.08;55.54;102455.56;5018482;28;1890;-56
2021/03/30 07:57:58;;;;;;;;;;;;;;;18.01;53.07;102467.56;5019467;28;1565;-63
2021/03/30 08:00:44;;;;;;;;;;;;;;;18.02;52.79;102468.44;5024790;28;795;-57
2021/03/30 08:03:13;;;;;;;;;;;;;;;18.00;54.67;102464.97;5027403;28;1546;-56
2021/03/30 08:05:39;;;;;;;;;;;;;;;18.04;49.56;102466.53;5023462;28;701;-63
2021/03/30 08:08:21;;;;;;;;;;;;;;;17.99;51.70;102484.69;5021429;28;1683;-57
2021/03/30 08:10:47;;;;;;;;;;;;;;;17.94;49.27;102478.72;5021885;28;1680;-56
2021/03/30 08:13:28;;;;;;;;;;;;;;;17.93;49.67;102474.31;5031488;28;1723;-63
2021/03/30 08:15:56;;;;;;;;;;;;;;;17.92;49.74;102462.72;5028850;28;1922;-64
2021/03/30 08:18:23;;;;;;;;;;;;;;;17.92;46.64;102467.22;5023861;28;1585;-57
2021/03/30 08:21:08;;;;;;;;;;;;;;;17.92;45.97;102476.13;5043254;28;1414;-63
2021/03/30 08:23:52;;;;;;;;;;;;;;;17.86;45.21;102466.63;5028983;28;1284;-69
2021/03/30 08:26:25;;;;;;;;;;;;;;;17.89;45.82;102463.78;5031228;28;1368;-62
2021/03/30 08:28:55;;;;;;;;;;;;;;;17.77;45.00;102463.59;5031086;28;1310;-56
2021/03/30 08:31:22;;;;;;;;;;;;;;;17.78;46.06;102460.81;5028939;28;1520;-60
2021/03/30 08:33:50;;;;;;;;;;;;;;;17.84;46.21;102460.47;5029416;28;1468;-58
2021/03/30 08:36:16;;;;;;;;;;;;;;;17.85;46.43;102459.56;5030553;28;1890;-65
2021/03/30 08:38:43;;;;;;;;;;;;;;;17.82;45.50;102454.31;5032445;28;1168;-64
2021/03/30 08:41:08;;;;;;;;;;;;;;;17.79;44.40;102470.56;5027054;28;1465;-57
2021/03/30 08:43:33;;;;;;;;;;;;;;;17.64;43.89;102458.03;5024518;28;1589;-57
2021/03/30 08:45:59;;;;;;;;;;;;;;;17.68;44.41;102460.44;5044014;28;1319;-56
2021/03/30 08:48:36;;;;;;;;;;;;;;;17.77;44.12;102468.94;5031124;28;1389;-62
2021/03/30 08:51:03;;;;;;;;;;;;;;;17.88;46.75;102463.84;5027180;28;1258;-61
2021/03/30 08:53:31;;;;;;;;;;;;;;;17.94;47.71;102449.28;5031721;28;1291;-59
2021/03/30 08:55:58;;;;;;;;;;;;;;;18.00;47.23;102459.63;5030045;28;1889;-58
2021/03/30 08:58:27;;;;;;;;;;;;;;;18.02;46.76;102463.06;5030054;28;1536;-58
2021/03/30 09:00:56;;;;;;;;;;;;;;;17.92;46.09;102445.81;5027219;28;1297;-60
2021/03/30 09:03:26;;;;;;;;;;;;;;;17.95;47.76;102451.00;5028627;28;1555;-59
2021/03/30 09:05:51;;;;;;;;;;;;;;;17.93;47.65;102444.88;5031166;28;1471;-60
2021/03/30 09:08:33;;;;;;;;;;;;;;;17.92;45.11;102452.03;5031303;28;1362;-61
2021/03/30 09:11:12;;;;;;;;;;;;;;;17.97;46.80;102449.97;5031323;28;1103;-58
2021/03/30 09:13:38;;;;;;;;;;;;;;;18.03;47.31;102454.09;5028869;28;1394;-64
2021/03/30 09:16:07;;;;;;;;;;;;;;;18.01;47.42;102431.91;5029944;28;1975;-64
2021/03/30 09:18:32;;;;;;;;;;;;;;;18.03;48.57;102443.41;5028074;28;1627;-58
2021/03/30 09:21:13;;;;;;;;;;;;;;;18.08;47.99;102441.31;5025983;28;1220;-57
2021/03/30 09:23:40;;;;;;;;;;;;;;;18.08;49.26;102435.94;5028659;28;1235;-60
2021/03/30 09:26:17;;;;;;;;;;;;;;;18.08;48.74;102436.84;5030855;28;1493;-58
2021/03/30 09:28:43;;;;;;;;;;;;;;;18.07;49.18;102455.66;5030159;28;1447;-65
2021/03/30 09:31:09;;;;;;;;;;;;;;;18.08;49.40;102442.19;5028594;28;1511;-57
2021/03/30 09:33:35;;;;;;;;;;;;;;;18.09;49.60;102432.34;5022372;28;1172;-62
2021/03/30 09:36:00;;;;;;;;;;;;;;;18.09;49.83;102437.69;5026658;28;1898;-68
2021/03/30 09:38:26;;;;;;;;;;;;;;;18.11;50.16;102425.06;5028882;28;1228;-56
2021/03/30 09:40:52;;;;;;;;;;;;;;;18.13;50.59;102433.03;5025916;28;1641;-56
2021/03/30 09:43:17;;;;;;;;;;;;;;;18.14;50.44;102424.03;5028621;28;1398;-61
2021/03/30 09:45:43;;;;;;;;;;;;;;;18.17;51.27;102424.72;5027754;28;1159;-56
2021/03/30 09:48:10;;;;;;;;;;;;;;;18.14;51.23;102427.56;5028593;28;1599;-61
2021/03/30 09:50:40;;;;;;;;;;;;;;;18.15;51.27;102420.41;5028974;28;1235;-61
2021/03/30 09:53:07;;;;;;;;;;;;;;;18.14;50.93;102411.50;5028216;28;1695;-61
2021/03/30 09:55:34;;;;;;;;;;;;;;;18.11;51.30;102405.47;5026065;28;1979;-61
2021/03/30 09:58:10;;;;;;;;;;;;;;;18.13;51.13;102409.78;5026668;28;1339;-60
2021/03/30 10:00:38;;;;;;;;;;;;;;;18.13;51.86;102406.25;5029462;28;1407;-60
2021/03/30 10:03:05;;;;;;;;;;;;;;;18.11;51.40;102409.00;5029953;28;1538;-56
2021/03/30 10:05:34;;;;;;;;;;;;;;;18.12;51.79;102391.97;5028805;28;1708;-57
2021/03/30 10:08:00;;;;;;;;;;;;;;;18.07;52.26;102394.09;5031740;28;1381;-56
2021/03/30 10:10:39;;;;;;;;;;;;;;;18.08;51.98;102398.47;5030462;28;1423;-59
2021/03/30 10:13:06;;;;;;;;;;;;;;;18.07;52.28;102396.75;5032357;28;1394;-56
2021/03/30 10:15:40;;;;;;;;;;;;;;;18.07;52.15;102391.41;5030617;28;2006;-60
2021/03/30 10:18:06;;;;;;;;;;;;;;;18.05;52.25;102387.97;5033186;28;1505;-56
2021/03/30 10:20:44;;;;;;;;;;;;;;;18.05;52.70;102396.84;5023778;28;1281;-56
2021/03/30 10:23:16;;;;;;;;;;;;;;;18.04;53.09;102391.56;5031043;28;1200;-61
2021/03/30 10:25:43;;;;;;;;;;;;;;;18.06;53.22;102401.25;5029426;28;1576;-61
2021/03/30 10:28:08;;;;;;;;;;;;;;;18.06;52.76;102397.69;5031892;28;1426;-61
2021/03/30 10:30:42;;;;;;;;;;;;;;;18.07;53.40;102399.44;5030965;28;1175;-56
2021/03/30 10:33:12;;;;;;;;;;;;;;;18.03;53.32;102381.84;5027582;28;1279;-60
2021/03/30 10:35:38;;;;;;;;;;;;;;;18.02;53.51;102393.47;5032080;28;1921;-61
2021/03/30 10:38:04;;;;;;;;;;;;;;;17.96;52.90;102375.94;5030539;28;1704;-60
2021/03/30 10:40:33;;;;;;;;;;;;;;;17.96;53.56;102373.28;5030823;28;1501;-61
2021/03/30 10:43:17;;;;;;;;;;;;;;;17.98;54.73;102376.72;5033138;28;1291;-60
2021/03/30 10:45:42;;;;;;;;;;;;;;;17.99;54.28;102377.63;5033524;28;1417;-61
2021/03/30 10:48:08;;;;;;;;;;;;;;;17.98;53.81;102376.72;5026413;28;1446;-56
2021/03/30 10:50:34;;;;;;;;;;;;;;;17.97;54.33;102379.50;5027405;28;785;-56
2021/03/30 10:52:59;;;;;;;;;;;;;;;17.96;54.15;102362.56;5031555;28;1489;-56
2021/03/30 10:55:25;;;;;;;;;;;;;;;17.97;54.21;102358.09;5020511;28;1986;-56
2021/03/30 10:57:51;;;;;;;;;;;;;;;17.96;54.86;102365.25;5028925;28;1557;-56
2021/03/30 11:00:17;;;;;;;;;;;;;;;17.95;55.01;102366.22;5027334;28;1195;-61
2021/03/30 11:02:42;;;;;;;;;;;;;;;17.99;54.34;102351.69;5022897;28;1492;-56
2021/03/30 11:05:08;;;;;;;;;;;;;;;17.99;54.67;102350.84;5030752;28;1456;-56
2021/03/30 11:07:34;;;;;;;;;;;;;;;18.00;55.24;102352.56;5025672;28;1310;-61
2021/03/30 11:10:00;;;;;;;;;;;;;;;18.02;55.53;102347.97;5028856;28;1327;-56
2021/03/30 11:12:26;;;;;;;;;;;;;;;18.03;55.32;102344.34;5022051;28;1136;-61
2021/03/30 11:14:51;;;;;;;;;;;;;;;18.05;55.07;102345.13;5022328;28;1923;-56
2021/03/30 11:17:16;;;;;;;;;;;;;;;18.02;55.34;102334.59;5024507;28;1403;-61
2021/03/30 11:19:42;;;;;;;;;;;;;;;18.00;55.92;102337.34;5027740;28;1343;-61
2021/03/30 11:22:08;;;;;;;;;;;;;;;17.97;56.12;102347.41;5028692;28;1238;-56
2021/03/30 11:24:36;;;;;;;;;;;;;;;17.97;56.44;102334.00;5026554;28;1430;-56
2021/03/30 11:27:01;;;;;;;;;;;;;;;17.98;55.99;102339.25;5027224;28;1191;-61
2021/03/30 11:29:40;;;;;;;;;;;;;;;17.98;56.17;102344.59;5029051;28;1525;-56
2021/03/30 11:39:48;;;;;;;;;;;;;;;18.02;56.52;102323.88;5030559;28;1450;-56
2021/03/30 11:42:13;;;;;;;;;;;;;;;18.01;56.53;102314.13;5033400;28;1518;-56
2021/03/30 11:44:38;;;;;;;;;;;;;;;18.02;56.48;102307.81;5028835;28;1406;-56
2021/03/30 11:47:04;;;;;;;;;;;;;;;18.04;56.08;102321.97;5029454;28;1333;-56
2021/03/30 11:49:31;;;;;;;;;;;;;;;18.00;56.08;102323.09;5029954;28;1362;-56
2021/03/30 11:51:56;;;;;;;;;;;;;;;17.91;57.08;102307.63;5028829;28;1473;-56
2021/03/30 11:54:22;;;;;;;;;;;;;;;17.96;56.07;102297.47;5031404;28;1902;-56
2021/03/30 11:56:47;;;;;;;;;;;;;;;18.00;56.19;102301.69;5029622;28;1374;-60
2021/03/30 11:59:13;;;;;;;;;;;;;;;18.02;56.89;102299.78;5030960;28;1429;-60
2021/03/30 12:01:38;;;;;;;;;;;;;;;17.96;57.39;102297.47;5029480;28;1430;-60
2021/03/30 12:04:04;;;;;;;;;;;;;;;17.94;56.77;102284.19;5029975;28;1287;-61
2021/03/30 12:06:29;;;;;;;;;;;;;;;17.94;56.89;102275.31;5031492;28;1437;-61
2021/03/30 12:08:55;;;;;;;;;;;;;;;17.98;57.52;102287.53;5028634;28;1305;-61
2021/03/30 12:11:20;;;;;;;;;;;;;;;18.00;56.42;102282.97;5033533;28;1346;-61
2021/03/30 12:13:46;;;;;;;;;;;;;;;18.02;57.25;102275.69;5031669;28;1559;-56
2021/03/30 12:16:11;;;;;;;;;;;;;;;17.98;57.11;102274.16;5028739;28;1883;-60
2021/03/30 12:18:36;;;;;;;;;;;;;;;17.95;57.64;102269.88;5022842;28;1394;-61
2021/03/30 12:21:02;;;;;;;;;;;;;;;17.93;57.50;102276.28;5031763;28;1311;-60
2021/03/30 12:23:27;;;;;;;;;;;;;;;17.91;57.42;102262.13;5032970;28;1422;-61
2021/03/30 12:25:53;;;;;;;;;;;;;;;17.88;57.63;102258.63;5031718;28;2365;-56
2021/03/30 12:28:18;;;;;;;;;;;;;;;17.92;57.00;102255.78;5030242;28;1580;-58
2021/03/30 12:30:44;;;;;;;;;;;;;;;17.86;57.69;102247.16;5030778;28;1274;-56
2021/03/30 12:33:09;;;;;;;;;;;;;;;17.83;58.56;102251.84;5031292;28;1330;-55
2021/03/30 12:35:35;;;;;;;;;;;;;;;17.86;57.43;102254.34;5031120;28;1886;-60
2021/03/30 12:38:00;;;;;;;;;;;;;;;17.88;57.96;102258.63;5029993;28;1712;-60
2021/03/30 12:40:25;;;;;;;;;;;;;;;17.56;54.82;102257.00;5024213;28;1145;-61
2021/03/30 12:42:51;;;;;;;;;;;;;;;17.59;53.03;102252.34;5028482;28;1451;-60
2021/03/30 12:45:17;;;;;;;;;;;;;;;17.19;53.07;102259.09;5030172;28;1295;-55
2021/03/30 12:47:43;;;;;;;;;;;;;;;17.04;48.95;102248.34;5028592;28;1453;-57
2021/03/30 12:50:08;;;;;;;;;;;;;;;16.95;51.21;102251.53;5026207;28;1398;-55
2021/03/30 12:52:34;;;;;;;;;;;;;;;17.02;47.54;102244.03;5029841;28;1298;-56
2021/03/30 12:55:06;;;;;;;;;;;;;;;16.87;48.58;102240.38;5029375;28;1951;-61
2021/03/30 12:57:32;;;;;;;;;;;;;;;16.89;47.99;102235.81;5023523;28;739;-56
2021/03/30 12:59:58;;;;;;;;;;;;;;;16.47;47.96;102258.56;5025299;28;1473;-60
2021/03/30 13:02:23;;;;;;;;;;;;;;;16.68;47.93;102243.19;5024075;28;1503;-56